Time;durP1;ratioP1;P1;durP2;ratioP2;P2;SDS_P1;SDS_P2;PMS_P1;PMS_P2;Temp;Humidity;BMP_temperature;BMP_pressure;BME280_temperature;BME280_humidity;BME280_pressure;Samples;Min_cycle;Max_cycle;Signal;HPM_P1;HPM_P2
2022/11/18 00:01:08;;;;;;;5.93;2.80;;;9.60;99.90;;;;;;5031008;28;20441;-84
2022/11/18 00:03:37;;;;;;;4.53;3.27;;;9.60;99.90;;;;;;5045256;28;20465;-84
2022/11/18 00:06:04;;;;;;;6.07;2.57;;;9.60;99.90;;;;;;5039557;28;20434;-84
2022/11/18 00:08:31;;;;;;;3.77;2.83;;;9.60;99.90;;;;;;5038583;28;20478;-83
2022/11/18 00:10:58;;;;;;;5.93;3.13;;;9.60;99.90;;;;;;5044130;28;20553;-84
2022/11/18 00:16:12;;;;;;;4.80;2.30;;;9.60;99.90;;;;;;5019034;28;20481;-84
2022/11/18 00:18:40;;;;;;;4.30;2.73;;;9.60;99.90;;;;;;5032113;28;20462;-85
2022/11/18 00:21:09;;;;;;;2.80;2.40;;;9.60;99.90;;;;;;5032119;28;20460;-85
2022/11/18 00:23:36;;;;;;;4.80;2.83;;;9.50;99.90;;;;;;5026554;28;20445;-84
2022/11/18 00:26:03;;;;;;;2.90;1.80;;;9.60;99.90;;;;;;5021924;28;20441;-84
2022/11/18 00:28:30;;;;;;;6.63;2.20;;;9.60;99.90;;;;;;5020745;28;20489;-84
2022/11/18 00:31:01;;;;;;;3.23;2.10;;;9.60;99.90;;;;;;5025009;28;20446;-84
2022/11/18 00:33:28;;;;;;;3.93;2.23;;;9.60;99.90;;;;;;5025628;28;20482;-85
2022/11/18 00:35:57;;;;;;;2.50;1.87;;;9.50;99.90;;;;;;5020931;28;20457;-84
2022/11/18 00:38:25;;;;;;;2.13;1.63;;;9.50;99.90;;;;;;5033082;28;20471;-84
2022/11/18 00:40:59;;;;;;;3.80;2.10;;;9.50;99.90;;;;;;5039021;28;20506;-84
2022/11/18 00:43:25;;;;;;;3.70;2.00;;;9.60;99.90;;;;;;5048067;28;20456;-84
2022/11/18 00:45:52;;;;;;;5.30;2.43;;;9.60;99.90;;;;;;5041436;28;20443;-85
2022/11/18 00:48:20;;;;;;;3.30;2.10;;;9.60;99.90;;;;;;5033549;28;20496;-84
2022/11/18 00:50:47;;;;;;;2.30;2.00;;;9.60;99.90;;;;;;5028776;28;20522;-84
2022/11/18 00:53:15;;;;;;;2.10;1.63;;;9.60;99.90;;;;;;5019264;28;20508;-84
2022/11/18 00:55:42;;;;;;;3.47;2.07;;;9.60;99.90;;;;;;5023513;28;20464;-85
2022/11/18 00:58:09;;;;;;;2.67;1.70;;;9.60;99.90;;;;;;5021937;28;20450;-84
2022/11/18 01:00:36;;;;;;;3.40;1.97;;;9.60;99.90;;;;;;5026097;28;20453;-84
2022/11/18 01:03:03;;;;;;;2.70;1.70;;;9.60;99.90;;;;;;5025887;28;20448;-84
2022/11/18 01:05:29;;;;;;;2.63;1.93;;;9.60;99.90;;;;;;5030817;28;20451;-85
2022/11/18 01:07:56;;;;;;;2.93;1.93;;;9.60;99.90;;;;;;5030587;28;20442;-83
2022/11/18 01:10:24;;;;;;;4.27;2.00;;;9.60;99.90;;;;;;5027228;28;20456;-85
2022/11/18 01:15:38;;;;;;;5.50;2.57;;;9.50;99.90;;;;;;5021507;28;20430;-84
2022/11/18 01:18:06;;;;;;;2.50;1.60;;;9.60;99.90;;;;;;5025347;28;20442;-84
2022/11/18 01:20:33;;;;;;;4.03;1.90;;;9.60;99.90;;;;;;5044041;28;20523;-83
2022/11/18 01:22:59;;;;;;;3.13;1.83;;;9.50;99.90;;;;;;5037363;28;20442;-84
2022/11/18 01:25:27;;;;;;;5.50;2.00;;;9.50;99.90;;;;;;5026096;28;20450;-84
2022/11/18 01:27:54;;;;;;;1.70;1.47;;;9.60;99.90;;;;;;5022952;28;20445;-84
2022/11/18 01:30:22;;;;;;;1.77;1.43;;;9.50;99.90;;;;;;5025821;28;20438;-84
2022/11/18 01:32:48;;;;;;;3.20;1.37;;;9.50;99.90;;;;;;5029506;28;20477;-84
2022/11/18 01:35:15;;;;;;;2.40;1.10;;;9.40;99.90;;;;;;5031453;28;20453;-84
2022/11/18 01:37:42;;;;;;;2.87;1.40;;;9.50;99.90;;;;;;5038765;28;20456;-84
2022/11/18 01:40:10;;;;;;;2.30;1.17;;;9.40;99.90;;;;;;5037603;28;21010;-84
2022/11/18 01:42:38;;;;;;;3.77;2.27;;;9.40;99.90;;;;;;5037637;28;20442;-84
2022/11/18 01:45:15;;;;;;;2.60;1.37;;;9.40;99.90;;;;;;5051167;28;20460;-84
2022/11/18 01:47:45;;;;;;;3.00;1.80;;;9.40;99.90;;;;;;5047419;28;20434;-83
2022/11/18 01:50:15;;;;;;;3.17;1.47;;;9.40;99.90;;;;;;5035653;28;20465;-84
2022/11/18 01:52:42;;;;;;;4.43;1.70;;;9.40;99.90;;;;;;5028974;28;20500;-84
2022/11/18 01:55:15;;;;;;;3.30;1.57;;;9.40;99.90;;;;;;5026785;28;20438;-84
2022/11/18 01:57:44;;;;;;;3.73;1.70;;;9.50;99.90;;;;;;5032471;28;20820;-83
2022/11/18 02:00:12;;;;;;;2.30;1.97;;;9.50;99.90;;;;;;5027428;28;20544;-84
2022/11/18 02:02:39;;;;;;;3.80;2.37;;;9.50;99.90;;;;;;5029471;28;20453;-84
2022/11/18 02:05:09;;;;;;;3.83;2.40;;;9.50;99.90;;;;;;5028851;28;20946;-84
2022/11/18 02:07:39;;;;;;;3.20;2.23;;;9.50;99.90;;;;;;5038697;28;20493;-82
2022/11/18 02:10:07;;;;;;;4.77;2.40;;;9.50;99.90;;;;;;5050062;28;20813;-83
2022/11/18 02:12:35;;;;;;;6.03;2.30;;;9.50;99.90;;;;;;5027993;28;20478;-84
2022/11/18 02:15:04;;;;;;;3.53;1.80;;;9.50;99.90;;;;;;5030018;28;20533;-84
2022/11/18 02:17:43;;;;;;;3.10;1.90;;;9.50;99.90;;;;;;5043222;28;20449;-84
2022/11/18 02:20:23;;;;;;;2.70;1.50;;;9.50;99.90;;;;;;5025770;28;20472;-84
2022/11/18 02:23:21;;;;;;;2.40;1.33;;;9.50;99.90;;;;;;5032029;28;20442;-84
2022/11/18 02:26:20;;;;;;;3.27;1.67;;;9.50;99.90;;;;;;5048347;28;20422;-84
2022/11/18 02:29:01;;;;;;;3.10;1.90;;;9.50;99.90;;;;;;5033137;28;20458;-83
2022/11/18 02:31:32;;;;;;;3.03;2.00;;;9.40;99.90;;;;;;5026936;28;20496;-82
2022/11/18 02:34:06;;;;;;;2.10;1.60;;;9.50;99.90;;;;;;5021952;28;20515;-84
2022/11/18 02:36:41;;;;;;;5.40;1.93;;;9.50;99.90;;;;;;5023117;28;20439;-84
2022/11/18 02:39:16;;;;;;;2.67;1.40;;;9.50;99.90;;;;;;5036939;28;20468;-83
2022/11/18 02:41:46;;;;;;;1.80;1.23;;;9.50;99.90;;;;;;5039240;28;20454;-84
2022/11/18 02:44:16;;;;;;;3.60;1.50;;;9.40;99.90;;;;;;5021292;28;20961;-84
2022/11/18 02:46:46;;;;;;;3.33;1.20;;;9.40;99.90;;;;;;5020934;28;20446;-84
2022/11/18 02:49:20;;;;;;;2.27;1.10;;;9.50;99.90;;;;;;5026528;28;21089;-84
2022/11/18 02:51:50;;;;;;;4.30;1.33;;;9.40;99.90;;;;;;5028002;28;20442;-84
2022/11/18 02:54:19;;;;;;;1.97;1.00;;;9.40;99.90;;;;;;5049662;28;20456;-84
2022/11/18 02:56:48;;;;;;;5.33;1.23;;;9.40;99.90;;;;;;5046250;28;20434;-85
2022/11/18 02:59:19;;;;;;;1.17;0.73;;;9.40;99.90;;;;;;5021101;28;20470;-85
2022/11/18 03:01:47;;;;;;;1.87;0.97;;;9.50;99.90;;;;;;5043704;28;20450;-84
2022/11/18 03:04:15;;;;;;;1.10;0.60;;;9.50;99.90;;;;;;5041268;28;20448;-83
2022/11/18 03:06:45;;;;;;;4.87;0.90;;;9.50;99.90;;;;;;5026347;28;20446;-84
2022/11/18 03:09:15;;;;;;;2.93;1.03;;;9.50;99.90;;;;;;5019533;28;21001;-84
2022/11/18 03:11:53;;;;;;;1.87;0.60;;;9.50;99.90;;;;;;5026358;28;20449;-84
2022/11/18 03:14:28;;;;;;;1.90;0.70;;;9.50;99.90;;;;;;5044525;28;20478;-85
2022/11/18 03:17:00;;;;;;;2.60;0.60;;;9.50;99.90;;;;;;5044300;28;20430;-84
2022/11/18 03:19:35;;;;;;;10.00;1.20;;;9.50;99.90;;;;;;5043334;28;20582;-84
2022/11/18 03:22:10;;;;;;;2.97;0.80;;;9.50;99.90;;;;;;5046139;28;20448;-84
2022/11/18 03:24:40;;;;;;;3.53;1.10;;;9.50;99.90;;;;;;5045780;28;20440;-84
2022/11/18 03:27:12;;;;;;;2.47;0.70;;;9.50;99.90;;;;;;5031941;28;20441;-84
2022/11/18 03:29:47;;;;;;;3.00;1.30;;;9.60;99.90;;;;;;5025532;28;20549;-85
2022/11/18 03:32:19;;;;;;;1.77;0.70;;;9.60;99.90;;;;;;5045517;28;20430;-84
2022/11/18 03:34:49;;;;;;;1.90;1.00;;;9.60;99.90;;;;;;5051238;28;20549;-84
2022/11/18 03:37:18;;;;;;;3.17;1.30;;;9.60;99.90;;;;;;5056352;28;20469;-83
2022/11/18 03:39:49;;;;;;;1.27;0.60;;;9.60;99.90;;;;;;5034259;28;20449;-85
2022/11/18 03:42:22;;;;;;;2.67;0.80;;;9.60;99.90;;;;;;5025116;28;20447;-84
2022/11/18 03:44:54;;;;;;;3.90;0.60;;;9.50;99.90;;;;;;5031946;28;20457;-84
2022/11/18 03:47:26;;;;;;;1.27;0.77;;;9.50;99.90;;;;;;5022136;28;20457;-85
2022/11/18 03:49:58;;;;;;;3.83;0.97;;;9.50;99.90;;;;;;5020786;28;20486;-85
2022/11/18 03:52:30;;;;;;;3.13;1.10;;;9.50;99.90;;;;;;5024542;28;20447;-83
2022/11/18 03:55:01;;;;;;;3.03;1.00;;;9.50;99.90;;;;;;5028814;28;20844;-84
2022/11/18 03:57:37;;;;;;;1.60;0.60;;;9.50;99.90;;;;;;5024423;28;20449;-84
2022/11/18 04:00:09;;;;;;;1.77;0.83;;;9.50;99.90;;;;;;5022744;28;20461;-84
2022/11/18 04:02:36;;;;;;;0.90;0.50;;;9.50;99.90;;;;;;5025726;28;20453;-85
2022/11/18 04:05:06;;;;;;;1.57;0.80;;;9.40;99.90;;;;;;5022404;28;20452;-85
2022/11/18 04:07:37;;;;;;;2.53;0.80;;;9.40;99.90;;;;;;5025476;28;20468;-83
2022/11/18 04:10:11;;;;;;;3.10;1.10;;;9.40;99.90;;;;;;5025518;28;20831;-84
2022/11/18 04:12:42;;;;;;;1.40;0.70;;;9.30;99.90;;;;;;5030565;28;20456;-83
2022/11/18 04:15:11;;;;;;;1.40;0.70;;;9.30;99.90;;;;;;5025269;28;20819;-84
2022/11/18 04:17:41;;;;;;;2.37;1.10;;;9.30;99.90;;;;;;5030754;28;20453;-84
2022/11/18 04:20:12;;;;;;;1.40;0.60;;;9.30;99.90;;;;;;5033675;28;20458;-83
2022/11/18 04:22:39;;;;;;;1.30;0.80;;;9.30;99.90;;;;;;5045770;28;20424;-83
2022/11/18 04:25:06;;;;;;;4.03;0.77;;;9.40;99.90;;;;;;5037452;28;20450;-84
2022/11/18 04:27:33;;;;;;;1.40;0.60;;;9.30;99.90;;;;;;5032491;28;20446;-84
2022/11/18 04:30:00;;;;;;;2.40;0.73;;;9.30;99.90;;;;;;5039287;28;20493;-85
2022/11/18 04:32:28;;;;;;;1.60;0.90;;;9.30;99.90;;;;;;5028391;28;20445;-84
2022/11/18 04:34:55;;;;;;;2.43;0.87;;;9.30;99.90;;;;;;5049524;28;20479;-85
2022/11/18 04:37:22;;;;;;;3.20;1.00;;;9.30;99.90;;;;;;5032473;28;20439;-84
2022/11/18 04:39:49;;;;;;;1.93;0.70;;;9.30;99.90;;;;;;5028310;28;20550;-84
2022/11/18 04:42:15;;;;;;;3.90;2.10;;;9.30;99.90;;;;;;5040077;28;20477;-84
2022/11/18 04:44:42;;;;;;;5.60;3.50;;;9.30;99.90;;;;;;5052429;28;20498;-85
2022/11/18 04:47:10;;;;;;;4.30;2.93;;;9.30;99.90;;;;;;5031858;28;20442;-85
2022/11/18 04:49:38;;;;;;;3.20;2.00;;;9.20;99.90;;;;;;5023880;28;20471;-84
2022/11/18 04:52:06;;;;;;;2.60;1.63;;;9.10;99.90;;;;;;5029859;28;20446;-83
2022/11/18 04:54:32;;;;;;;1.83;0.80;;;9.10;99.90;;;;;;5031940;28;20501;-84
2022/11/18 04:56:59;;;;;;;1.43;0.60;;;9.00;99.90;;;;;;5024569;28;20457;-85
2022/11/18 04:59:28;;;;;;;2.73;0.90;;;8.90;99.90;;;;;;5024058;28;20469;-84
2022/11/18 05:01:56;;;;;;;3.10;0.90;;;8.80;99.90;;;;;;5031028;28;20437;-84
2022/11/18 05:04:25;;;;;;;1.70;0.60;;;8.90;99.90;;;;;;5024122;28;20447;-84
2022/11/18 05:06:53;;;;;;;1.10;0.70;;;8.90;99.90;;;;;;5030632;28;20442;-84
2022/11/18 05:09:20;;;;;;;1.50;0.90;;;8.80;99.90;;;;;;5024760;28;20474;-84
2022/11/18 05:14:32;;;;;;;1.00;0.70;;;8.80;99.90;;;;;;5028285;28;20476;-90
2022/11/18 05:17:01;;;;;;;3.37;0.80;;;8.80;99.90;;;;;;5054200;28;20441;-85
2022/11/18 05:19:28;;;;;;;3.17;0.83;;;8.80;99.90;;;;;;5041364;28;20890;-85
2022/11/18 05:21:56;;;;;;;1.33;0.60;;;8.80;99.90;;;;;;5025639;28;20442;-84
2022/11/18 05:24:23;;;;;;;1.57;0.60;;;8.80;99.90;;;;;;5032476;28;20521;-86
2022/11/18 05:26:50;;;;;;;2.30;0.90;;;8.80;99.90;;;;;;5035034;28;20958;-86
2022/11/18 05:29:18;;;;;;;2.53;0.87;;;8.80;99.90;;;;;;5030995;28;20488;-87
2022/11/18 05:31:46;;;;;;;1.20;0.70;;;8.80;99.90;;;;;;5023260;28;20447;-86
2022/11/18 05:34:13;;;;;;;1.23;0.60;;;8.90;99.90;;;;;;5029689;28;20480;-86
2022/11/18 05:36:40;;;;;;;2.50;0.90;;;8.90;99.90;;;;;;5035759;28;20983;-86
2022/11/18 05:39:09;;;;;;;2.43;0.90;;;8.80;99.90;;;;;;5034992;28;20464;-86
2022/11/18 05:44:20;;;;;;;2.60;0.60;;;8.80;99.90;;;;;;5052914;28;20480;-85
2022/11/18 05:46:46;;;;;;;2.53;0.90;;;8.90;99.90;;;;;;5031962;28;20434;-85
2022/11/18 05:49:13;;;;;;;1.80;0.73;;;8.80;99.90;;;;;;5035266;28;21098;-86
2022/11/18 05:51:40;;;;;;;0.90;0.53;;;8.80;99.90;;;;;;5038664;28;20451;-86
2022/11/18 05:54:11;;;;;;;1.50;0.80;;;8.80;99.90;;;;;;5029520;28;20556;-84
2022/11/18 05:56:39;;;;;;;1.90;1.20;;;8.70;99.90;;;;;;5026902;28;20466;-85
2022/11/18 05:59:06;;;;;;;1.23;0.70;;;8.80;99.90;;;;;;5029620;28;20466;-85
2022/11/18 06:01:37;;;;;;;2.20;1.10;;;8.70;99.90;;;;;;5037384;28;20435;-84
2022/11/18 06:04:10;;;;;;;2.27;0.90;;;8.70;99.90;;;;;;5046449;28;20494;-85
2022/11/18 06:06:37;;;;;;;2.87;1.10;;;8.70;99.90;;;;;;5039177;28;20438;-85
2022/11/18 06:09:06;;;;;;;1.50;0.80;;;8.70;99.90;;;;;;5034329;28;20469;-85
2022/11/18 06:11:41;;;;;;;4.70;1.00;;;8.70;99.90;;;;;;5029693;28;20521;-85
2022/11/18 06:14:10;;;;;;;1.23;0.90;;;8.70;99.90;;;;;;5024620;28;20473;-85
2022/11/18 06:16:40;;;;;;;1.90;1.00;;;8.60;99.90;;;;;;5024989;28;20450;-84
2022/11/18 06:19:07;;;;;;;1.27;0.63;;;8.70;99.90;;;;;;5032038;28;20457;-86
2022/11/18 06:21:34;;;;;;;1.30;0.60;;;8.60;99.90;;;;;;5046337;28;20485;-83
2022/11/18 06:24:01;;;;;;;1.30;0.60;;;8.60;99.90;;;;;;5033310;28;20435;-85
2022/11/18 06:26:29;;;;;;;1.80;1.17;;;8.60;99.90;;;;;;5036428;28;20449;-85
2022/11/18 06:28:57;;;;;;;3.30;0.90;;;8.60;99.90;;;;;;5045673;28;20474;-84
2022/11/18 06:31:24;;;;;;;1.53;1.20;;;8.50;99.90;;;;;;5038679;28;20442;-85
2022/11/18 06:33:50;;;;;;;1.73;0.80;;;8.60;99.90;;;;;;5027730;28;20497;-85
2022/11/18 06:36:17;;;;;;;2.97;0.93;;;8.60;99.90;;;;;;5024291;28;20453;-85
2022/11/18 06:38:44;;;;;;;3.10;1.17;;;8.50;99.90;;;;;;5026287;28;20453;-85
2022/11/18 06:41:11;;;;;;;2.70;0.93;;;8.60;99.90;;;;;;5019720;28;20439;-85
2022/11/18 06:43:40;;;;;;;2.50;1.40;;;8.50;99.90;;;;;;5020823;28;20449;-85
2022/11/18 06:48:55;;;;;;;2.17;1.03;;;8.60;99.90;;;;;;5052081;22;20546;-87
2022/11/18 06:51:23;;;;;;;1.30;0.73;;;8.60;99.90;;;;;;5054258;28;20451;-88
2022/11/18 06:53:50;;;;;;;1.17;0.73;;;8.60;99.90;;;;;;5051513;28;20469;-88
2022/11/18 06:56:18;;;;;;;1.70;1.10;;;8.70;99.90;;;;;;5051349;28;20806;-90
2022/11/18 06:58:46;;;;;;;2.93;1.00;;;8.70;99.90;;;;;;5055454;28;20459;-86
2022/11/18 07:01:16;;;;;;;1.23;0.70;;;8.70;99.90;;;;;;5060819;28;20455;-86
2022/11/18 07:03:44;;;;;;;1.30;0.73;;;8.70;99.90;;;;;;5055000;28;20801;-87
2022/11/18 07:06:13;;;;;;;1.23;0.70;;;8.80;99.90;;;;;;5056060;28;20984;-85
2022/11/18 07:08:41;;;;;;;1.97;1.17;;;8.80;99.90;;;;;;5054762;28;20469;-85
2022/11/18 07:11:10;;;;;;;2.70;1.00;;;8.80;99.90;;;;;;5054121;28;20479;-86
2022/11/18 07:13:37;;;;;;;4.27;1.17;;;8.80;99.90;;;;;;5053813;28;20452;-86
2022/11/18 07:16:05;;;;;;;3.53;1.27;;;8.80;99.90;;;;;;5054701;28;20453;-86
2022/11/18 07:18:36;;;;;;;1.67;1.10;;;8.80;99.90;;;;;;5057341;28;20483;-86
2022/11/18 07:21:03;;;;;;;2.87;0.97;;;8.80;99.90;;;;;;5054626;28;20971;-86
2022/11/18 07:23:31;;;;;;;4.00;1.20;;;8.80;99.90;;;;;;5054380;28;20873;-86
2022/11/18 07:25:58;;;;;;;2.83;1.00;;;8.80;99.90;;;;;;5053544;28;20965;-85
2022/11/18 07:28:25;;;;;;;1.83;1.23;;;8.80;99.90;;;;;;5053301;28;20464;-86
2022/11/18 07:30:52;;;;;;;1.87;1.20;;;8.90;99.90;;;;;;5053514;28;20452;-86
2022/11/18 07:33:19;;;;;;;1.57;0.97;;;8.90;99.90;;;;;;5053898;28;20453;-86
2022/11/18 07:35:47;;;;;;;3.97;1.20;;;9.00;99.90;;;;;;5052896;28;20554;-86
2022/11/18 07:38:13;;;;;;;2.43;0.80;;;9.10;99.90;;;;;;5054312;28;20827;-85
2022/11/18 07:40:40;;;;;;;1.53;1.13;;;9.20;99.90;;;;;;5052696;28;20445;-86
2022/11/18 07:43:07;;;;;;;3.10;0.80;;;9.10;99.90;;;;;;5056636;28;20519;-86
2022/11/18 07:45:34;;;;;;;1.47;1.07;;;9.10;99.90;;;;;;5060847;28;20432;-86
2022/11/18 07:48:00;;;;;;;1.60;0.90;;;9.10;99.90;;;;;;5061593;28;20800;-85
2022/11/18 07:50:28;;;;;;;1.53;1.17;;;9.10;99.90;;;;;;5084726;28;20435;-86
2022/11/18 07:52:57;;;;;;;4.73;1.73;;;9.20;99.90;;;;;;5076376;28;20445;-85
2022/11/18 07:55:24;;;;;;;1.70;0.97;;;9.20;99.90;;;;;;5068969;28;20558;-86
2022/11/18 07:57:51;;;;;;;1.60;0.60;;;9.30;99.90;;;;;;5076364;28;20698;-86
2022/11/18 08:00:19;;;;;;;1.03;0.80;;;9.30;99.90;;;;;;5049935;28;20447;-86
2022/11/18 08:02:49;;;;;;;1.57;0.60;;;9.30;99.90;;;;;;5064774;28;20502;-86
2022/11/18 08:05:16;;;;;;;1.10;0.73;;;9.40;99.90;;;;;;5058239;28;20441;-85
2022/11/18 08:07:43;;;;;;;2.20;1.43;;;9.40;99.90;;;;;;5065869;28;20437;-85
2022/11/18 08:10:11;;;;;;;1.33;0.70;;;9.40;99.90;;;;;;5066976;28;20493;-85
2022/11/18 08:12:38;;;;;;;1.40;0.60;;;9.50;99.90;;;;;;5059238;28;20444;-85
2022/11/18 08:15:05;;;;;;;4.10;1.10;;;9.50;99.90;;;;;;5071651;28;20473;-85
2022/11/18 08:17:33;;;;;;;2.33;1.00;;;9.50;99.90;;;;;;5068152;28;20437;-85
2022/11/18 08:19:59;;;;;;;1.40;0.67;;;9.60;99.90;;;;;;5055133;28;20473;-85
2022/11/18 08:22:26;;;;;;;1.73;0.70;;;9.50;99.90;;;;;;5054428;28;20448;-88
2022/11/18 08:24:53;;;;;;;1.30;0.70;;;9.50;99.90;;;;;;5052658;28;20929;-86
2022/11/18 08:27:21;;;;;;;2.90;1.10;;;9.50;99.90;;;;;;5052740;28;20441;-87
2022/11/18 08:29:47;;;;;;;3.10;1.00;;;9.50;99.90;;;;;;5053549;28;20821;-86
2022/11/18 08:32:14;;;;;;;1.90;1.27;;;9.50;99.90;;;;;;5050888;28;20452;-85
2022/11/18 08:34:41;;;;;;;5.27;1.20;;;9.60;99.90;;;;;;5052801;28;20992;-85
2022/11/18 08:37:08;;;;;;;1.70;1.30;;;9.60;99.90;;;;;;5051794;28;20980;-85
2022/11/18 08:39:34;;;;;;;1.73;1.20;;;9.70;99.90;;;;;;5052226;28;20469;-85
2022/11/18 08:42:01;;;;;;;3.20;1.03;;;9.70;99.90;;;;;;5052417;28;20824;-85
2022/11/18 08:44:32;;;;;;;5.17;1.70;;;9.70;99.90;;;;;;5052795;28;20436;-85
2022/11/18 08:46:58;;;;;;;2.03;1.30;;;9.80;99.90;;;;;;5053251;28;20479;-85
2022/11/18 08:49:25;;;;;;;1.80;0.97;;;9.80;99.90;;;;;;5052900;28;20848;-86
2022/11/18 08:51:52;;;;;;;2.33;1.13;;;9.90;99.90;;;;;;5052997;28;20448;-86
2022/11/18 08:54:19;;;;;;;1.73;1.23;;;9.90;99.90;;;;;;5056745;28;20473;-85
2022/11/18 08:56:45;;;;;;;1.40;1.10;;;10.00;99.90;;;;;;5062027;28;20449;-85
2022/11/18 08:59:12;;;;;;;1.93;1.10;;;10.00;99.90;;;;;;5052575;28;20472;-85
2022/11/18 09:01:42;;;;;;;2.50;1.60;;;10.00;99.90;;;;;;5052193;28;20532;-84
2022/11/18 09:04:09;;;;;;;6.80;1.20;;;10.10;99.90;;;;;;5052434;28;20445;-83
2022/11/18 09:06:37;;;;;;;2.30;1.27;;;10.10;99.90;;;;;;5051972;28;20453;-86
2022/11/18 09:09:04;;;;;;;1.40;1.10;;;10.10;99.90;;;;;;5051334;28;20500;-83
2022/11/18 09:11:30;;;;;;;2.40;1.33;;;10.10;99.90;;;;;;5052508;28;20444;-82
2022/11/18 09:13:59;;;;;;;1.70;1.13;;;10.10;99.90;;;;;;5053276;28;20455;-85
2022/11/18 09:16:28;;;;;;;1.50;1.10;;;10.10;99.90;;;;;;5056027;28;20476;-84
2022/11/18 09:18:59;;;;;;;2.90;1.50;;;10.20;99.90;;;;;;5060867;28;20469;-86
2022/11/18 09:21:26;;;;;;;1.37;0.80;;;10.20;99.90;;;;;;5069096;28;20444;-86
2022/11/18 09:23:53;;;;;;;2.77;1.07;;;10.20;99.90;;;;;;5065227;28;20540;-87
2022/11/18 09:26:22;;;;;;;1.27;0.67;;;10.20;99.90;;;;;;5063270;28;20444;-86
2022/11/18 09:28:49;;;;;;;1.40;0.83;;;10.20;99.90;;;;;;5052521;28;20473;-83
2022/11/18 09:31:17;;;;;;;1.83;1.00;;;10.20;99.90;;;;;;5064432;28;20424;-83
2022/11/18 09:33:45;;;;;;;2.50;1.23;;;10.10;99.90;;;;;;5073059;28;20447;-87
2022/11/18 09:36:15;;;;;;;2.47;1.37;;;10.20;99.90;;;;;;5052769;28;20487;-85
2022/11/18 09:38:42;;;;;;;1.50;0.90;;;10.10;99.90;;;;;;5052177;28;20528;-83
2022/11/18 09:41:22;;;;;;;2.07;0.90;;;10.20;99.90;;;;;;5050184;28;20440;-84
2022/11/18 09:43:58;;;;;;;1.83;1.10;;;10.10;99.90;;;;;;5052136;28;20451;-83
2022/11/18 09:46:31;;;;;;;4.23;3.83;;;10.10;99.90;;;;;;5053042;28;20440;-83
2022/11/18 09:49:15;;;;;;;1.90;1.23;;;10.00;99.90;;;;;;5040165;28;20472;-84
2022/11/18 09:51:46;;;;;;;2.70;1.17;;;10.00;99.90;;;;;;5056338;28;20445;-84
2022/11/18 09:54:24;;;;;;;2.37;1.17;;;10.00;99.90;;;;;;5056143;28;20454;-84
2022/11/18 09:56:52;;;;;;;1.97;1.27;;;10.00;99.90;;;;;;5055506;28;20432;-84
2022/11/18 09:59:22;;;;;;;1.70;1.00;;;10.00;99.90;;;;;;5065804;28;20475;-84
2022/11/18 10:01:50;;;;;;;3.40;1.30;;;10.10;99.90;;;;;;5078738;28;20489;-84
2022/11/18 10:04:19;;;;;;;5.87;5.30;;;10.10;99.90;;;;;;5056757;28;20443;-85
2022/11/18 10:06:48;;;;;;;2.17;1.00;;;10.20;99.90;;;;;;5055355;28;20792;-85
2022/11/18 10:09:27;;;;;;;2.23;0.90;;;10.30;99.90;;;;;;5062945;28;20487;-83
2022/11/18 10:12:08;;;;;;;1.23;0.70;;;10.30;99.90;;;;;;5064233;28;20444;-83
2022/11/18 10:15:06;;;;;;;1.80;0.93;;;10.30;99.90;;;;;;5056365;28;20453;-83
2022/11/18 10:17:44;;;;;;;1.97;1.00;;;10.30;99.90;;;;;;5050744;28;20508;-83
2022/11/18 10:20:23;;;;;;;1.73;1.10;;;10.20;99.90;;;;;;5078983;28;20506;-83
2022/11/18 10:22:56;;;;;;;1.20;0.80;;;10.20;99.90;;;;;;5065138;28;20436;-83
2022/11/18 10:25:23;;;;;;;2.77;1.10;;;10.40;99.90;;;;;;5077695;28;20417;-83
2022/11/18 10:27:51;;;;;;;1.70;1.10;;;10.40;99.90;;;;;;5085630;28;20504;-83
2022/11/18 10:30:21;;;;;;;2.53;1.00;;;10.40;99.90;;;;;;5066189;28;20453;-83
2022/11/18 10:32:58;;;;;;;1.83;0.90;;;10.40;99.90;;;;;;5069196;28;20445;-84
2022/11/18 10:35:29;;;;;;;3.70;1.10;;;10.30;99.90;;;;;;5071565;28;20529;-84
2022/11/18 10:38:03;;;;;;;3.20;1.70;;;10.30;99.90;;;;;;5054668;28;20448;-84
2022/11/18 10:40:31;;;;;;;2.07;1.00;;;10.30;99.90;;;;;;5056371;28;20476;-84
2022/11/18 10:42:58;;;;;;;2.93;1.20;;;10.30;99.90;;;;;;5053453;28;20817;-84
2022/11/18 10:45:27;;;;;;;1.83;1.00;;;10.40;99.90;;;;;;5053861;28;20455;-84
2022/11/18 10:48:06;;;;;;;2.37;1.30;;;10.40;99.90;;;;;;5054520;28;20828;-83
2022/11/18 10:50:35;;;;;;;3.80;1.00;;;10.30;99.90;;;;;;5054052;28;20437;-84
2022/11/18 10:53:04;;;;;;;2.10;1.53;;;10.30;99.90;;;;;;5065911;28;20440;-81
2022/11/18 10:55:31;;;;;;;3.30;1.80;;;10.40;99.90;;;;;;5068327;28;20988;-83
2022/11/18 10:58:03;;;;;;;2.77;1.70;;;10.40;99.90;;;;;;5054707;28;20503;-84
2022/11/18 11:00:44;;;;;;;3.47;1.73;;;10.50;99.90;;;;;;5054694;28;20457;-83
2022/11/18 11:03:27;;;;;;;2.17;1.37;;;10.50;99.90;;;;;;5055536;28;20448;-84
2022/11/18 11:06:27;;;;;;;3.17;1.80;;;10.40;99.90;;;;;;5054684;28;20452;-83
2022/11/18 11:08:57;;;;;;;3.20;2.00;;;10.50;99.90;;;;;;5067615;28;20451;-84
2022/11/18 11:11:27;;;;;;;3.13;2.20;;;10.50;99.90;;;;;;5071934;28;20443;-84
2022/11/18 11:14:00;;;;;;;2.43;1.60;;;10.50;99.90;;;;;;5058820;28;21022;-84
2022/11/18 11:16:30;;;;;;;2.13;1.93;;;10.40;99.90;;;;;;5055184;28;20484;-84
2022/11/18 11:19:02;;;;;;;2.67;1.70;;;10.40;99.90;;;;;;5054249;28;20470;-84
2022/11/18 11:21:30;;;;;;;2.73;1.90;;;10.40;99.90;;;;;;5054879;28;20445;-84
2022/11/18 11:23:58;;;;;;;2.70;1.60;;;10.40;99.90;;;;;;5054598;28;20531;-84
2022/11/18 11:26:34;;;;;;;4.20;1.97;;;10.30;99.90;;;;;;5054880;28;20474;-84
2022/11/18 11:29:06;;;;;;;5.00;2.37;;;10.40;99.90;;;;;;5053871;28;20479;-84
2022/11/18 11:31:41;;;;;;;2.20;1.60;;;10.50;99.90;;;;;;5054149;28;20535;-84
2022/11/18 11:34:15;;;;;;;2.97;2.10;;;10.50;99.90;;;;;;5053862;28;20743;-84
2022/11/18 11:36:47;;;;;;;1.83;1.23;;;10.60;99.90;;;;;;5055237;28;20483;-83
2022/11/18 11:39:40;;;;;;;2.43;1.37;;;10.60;99.90;;;;;;5069020;28;20444;-83
2022/11/18 11:42:18;;;;;;;2.37;1.57;;;10.80;99.90;;;;;;5067193;28;20494;-84
2022/11/18 11:44:58;;;;;;;2.70;1.30;;;11.00;99.90;;;;;;5060547;28;20463;-84
2022/11/18 11:47:48;;;;;;;3.10;2.20;;;11.10;99.90;;;;;;5062443;28;20455;-84
2022/11/18 11:50:22;;;;;;;2.40;1.33;;;11.20;99.90;;;;;;5059885;28;20484;-84
2022/11/18 11:53:05;;;;;;;1.70;1.40;;;11.40;99.90;;;;;;5062601;28;20454;-84
2022/11/18 11:55:40;;;;;;;3.90;1.90;;;11.50;99.90;;;;;;5057810;28;20665;-84
2022/11/18 11:58:25;;;;;;;3.20;1.80;;;11.80;99.90;;;;;;5054369;28;20452;-84
2022/11/18 12:01:01;;;;;;;5.17;2.23;;;12.00;99.90;;;;;;5055294;28;20906;-84
2022/11/18 12:03:44;;;;;;;3.90;1.50;;;12.10;99.90;;;;;;5070090;28;20449;-83
2022/11/18 12:06:11;;;;;;;5.43;2.47;;;11.90;99.90;;;;;;5067732;28;20496;-83
2022/11/18 12:08:39;;;;;;;4.40;2.60;;;11.80;99.90;;;;;;5053677;28;20471;-83
2022/11/18 12:11:13;;;;;;;3.67;1.90;;;11.80;99.90;;;;;;5053077;28;20444;-84
2022/11/18 12:13:47;;;;;;;2.40;1.07;;;11.90;99.90;;;;;;5053544;28;20441;-83
2022/11/18 12:16:25;;;;;;;2.20;1.03;;;11.90;99.90;;;;;;5054064;28;20568;-83
2022/11/18 12:18:58;;;;;;;4.03;1.77;;;12.00;99.90;;;;;;5053297;28;20468;-83
2022/11/18 12:21:54;;;;;;;2.20;1.40;;;12.00;99.90;;;;;;5053597;28;20991;-83
2022/11/18 12:24:32;;;;;;;1.97;1.00;;;11.90;99.90;;;;;;5053669;28;20444;-83
2022/11/18 12:27:01;;;;;;;2.73;1.37;;;11.70;99.90;;;;;;5053431;28;20456;-83
2022/11/18 12:29:54;;;;;;;3.20;1.67;;;11.60;99.90;;;;;;5052979;28;20473;-84
2022/11/18 12:32:35;;;;;;;1.77;1.40;;;11.60;99.90;;;;;;5053008;28;20971;-83
2022/11/18 12:35:05;;;;;;;3.00;1.50;;;11.50;99.90;;;;;;5064776;28;20435;-84
2022/11/18 12:37:44;;;;;;;2.53;1.30;;;11.40;99.90;;;;;;5053786;28;20452;-84
2022/11/18 12:40:26;;;;;;;2.23;1.27;;;11.40;99.90;;;;;;5053438;28;20460;-84
2022/11/18 12:45:57;;;;;;;4.13;1.20;;;11.20;99.90;;;;;;5077036;28;20423;-83
2022/11/18 12:48:42;;;;;;;2.70;1.47;;;11.20;99.90;;;;;;5055970;28;20490;-84
2022/11/18 12:51:45;;;;;;;4.87;2.30;;;11.40;99.90;;;;;;5054169;28;20504;-84
2022/11/18 12:54:26;;;;;;;2.27;1.60;;;11.50;99.90;;;;;;5051076;28;20879;-84
2022/11/18 12:56:54;;;;;;;5.83;1.97;;;11.60;99.90;;;;;;5053255;28;20488;-84
2022/11/18 12:59:30;;;;;;;12.00;9.03;;;11.60;99.90;;;;;;5051176;28;20472;-84
2022/11/18 13:02:06;;;;;;;7.70;2.40;;;11.50;99.90;;;;;;5056045;28;20482;-84
2022/11/18 13:04:33;;;;;;;1.80;1.30;;;11.50;99.90;;;;;;5064312;28;20470;-84
2022/11/18 13:07:01;;;;;;;2.40;1.70;;;11.40;99.90;;;;;;5084569;28;20460;-83
2022/11/18 13:09:30;;;;;;;3.10;2.80;;;11.40;99.90;;;;;;5086170;28;20508;-84
2022/11/18 13:12:01;;;;;;;6.27;2.87;;;11.30;99.90;;;;;;5075625;28;20440;-84
2022/11/18 13:20:23;;;;;;;4.37;2.57;;;11.20;99.90;;;;;;5061614;28;20456;-84
2022/11/18 13:25:37;;;;;;;14.10;4.43;;;11.50;99.90;;;;;;5065467;28;20559;-84
2022/11/18 13:28:13;;;;;;;4.50;2.47;;;11.60;99.90;;;;;;5060484;28;20440;-84
2022/11/18 13:30:51;;;;;;;3.17;2.60;;;11.80;99.90;;;;;;5068335;28;20447;-84
2022/11/18 13:33:17;;;;;;;4.20;2.77;;;12.10;99.90;;;;;;5067671;28;20450;-84
2022/11/18 13:35:44;;;;;;;9.57;5.40;;;12.20;99.90;;;;;;5065062;28;20471;-84